Oroville, Washington
Current Conditions -  °F | °C
As of 6:53 PM on Friday 28 Nov 2014 (Local Time) from KOMK Reporting Station
Light Snow Light Snow  
Wind Chill: 13°   Ceiling: 3300
Heat Index: 27°   Visibility: 8mi
Dew Point: 23°   Wind: 21mph
Humidity: 85%   Direction: 360°N
Pressure: 29.33"   Gusts: 32mph
Location:  48.94°N, 119.44°W
Report Text: KOMK 290253Z AUTO 36018G28KT 8SM -SN OVC033 M03/M05 A2933 RMK AO2 PK WND 36033/0231 SLP941 P0002 60008 I1000 I3002 T10281050 51014
Loading
Personal Weather Stations






























Interactive Weather Map New forecast layout! Learn more

10-Day Weather Forecast

Advertisements
Track Severe Weather on mobile